Time;durP1;ratioP1;P1;durP2;ratioP2;P2;SDS_P1;SDS_P2;PMS_P1;PMS_P2;Temp;Humidity;BMP_temperature;BMP_pressure;BME280_temperature;BME280_humidity;BME280_pressure;Samples;Min_cycle;Max_cycle;Signal;HPM_P1;HPM_P2
2021/01/11 00:00:51;;;;;;;39.40;22.93;;;;;;;2.66;100.00;100861.75;5118956;28;20256;-38
2021/01/11 00:03:37;;;;;;;37.27;23.40;;;;;;;2.86;100.00;100870.03;5118054;28;20198;-36
2021/01/11 00:06:24;;;;;;;44.07;23.63;;;;;;;2.87;100.00;100869.22;5118969;28;20199;-37
2021/01/11 00:09:11;;;;;;;39.93;23.83;;;;;;;3.02;100.00;100865.47;5118959;28;20599;-39
2021/01/11 00:11:58;;;;;;;39.80;22.67;;;;;;;2.96;100.00;100866.97;5118708;28;20234;-40
2021/01/11 00:14:44;;;;;;;42.00;23.47;;;;;;;2.90;100.00;100859.97;5118933;28;20271;-35
2021/01/11 00:17:34;;;;;;;38.33;23.33;;;;;;;2.98;100.00;100865.34;5118579;28;20194;-38
2021/01/11 00:20:20;;;;;;;41.50;23.73;;;;;;;2.81;100.00;100859.66;5118705;28;20280;-39
2021/01/11 00:23:07;;;;;;;41.27;24.43;;;;;;;2.97;100.00;100858.50;5118609;28;20407;-37
2021/01/11 00:25:54;;;;;;;40.97;23.33;;;;;;;2.71;100.00;100858.53;5118763;28;20194;-41
2021/01/11 00:28:41;;;;;;;43.73;23.87;;;;;;;3.09;100.00;100853.75;5118420;28;20202;-40
2021/01/11 00:31:27;;;;;;;36.57;22.87;;;;;;;2.81;100.00;100849.44;5118377;28;20202;-37
2021/01/11 00:34:14;;;;;;;40.90;22.83;;;;;;;3.00;100.00;100845.78;5118606;28;20233;-37
2021/01/11 00:37:00;;;;;;;34.57;21.90;;;;;;;2.96;100.00;100854.19;5118426;28;20199;-40
2021/01/11 00:39:50;;;;;;;39.90;21.53;;;;;;;2.80;100.00;100847.72;5118524;28;20271;-39
2021/01/11 00:42:37;;;;;;;34.80;20.60;;;;;;;2.82;100.00;100848.63;5118107;28;20198;-40
2021/01/11 00:45:23;;;;;;;35.47;21.77;;;;;;;2.91;100.00;100855.75;5118115;28;20299;-39
2021/01/11 00:48:10;;;;;;;40.00;21.07;;;;;;;2.76;100.00;100848.47;5118139;28;20296;-39
2021/01/11 00:50:55;;;;;;;35.30;21.13;;;;;;;2.93;100.00;100851.56;5117996;28;20284;-39
2021/01/11 00:53:44;;;;;;;34.17;21.70;;;;;;;2.78;100.00;100846.81;5117951;28;20296;-39
2021/01/11 00:56:34;;;;;;;37.80;21.60;;;;;;;2.97;100.00;100845.72;5118005;28;20674;-38
2021/01/11 00:59:22;;;;;;;36.73;22.93;;;;;;;2.97;100.00;100843.16;5117994;28;20248;-39
2021/01/11 01:02:08;;;;;;;42.60;23.70;;;;;;;2.78;100.00;100839.16;5118076;28;20300;-38
2021/01/11 01:04:54;;;;;;;38.60;22.47;;;;;;;2.94;100.00;100841.38;5118052;28;20192;-40
2021/01/11 01:07:41;;;;;;;44.20;22.63;;;;;;;2.90;100.00;100837.00;5118060;28;20194;-39
2021/01/11 01:10:27;;;;;;;35.07;22.20;;;;;;;2.96;100.00;100847.41;5118038;28;20194;-37
2021/01/11 01:13:15;;;;;;;38.00;21.73;;;;;;;3.20;100.00;100836.22;5117263;28;20226;-38
2021/01/11 01:16:03;;;;;;;37.07;23.23;;;;;;;2.87;100.00;100842.00;5118026;28;20475;-38
2021/01/11 01:18:49;;;;;;;37.90;22.37;;;;;;;2.92;100.00;100837.03;5117495;28;20195;-37
2021/01/11 01:21:36;;;;;;;35.77;22.23;;;;;;;2.85;100.00;100835.97;5118002;28;20471;-38
2021/01/11 01:24:22;;;;;;;35.73;22.17;;;;;;;3.13;100.00;100834.28;5117533;28;20190;-37
2021/01/11 01:27:08;;;;;;;37.83;22.63;;;;;;;2.91;100.00;100825.09;5117919;28;20484;-41
2021/01/11 01:29:56;;;;;;;36.50;22.80;;;;;;;2.95;100.00;100826.91;5117818;28;20589;-37
2021/01/11 01:32:42;;;;;;;34.67;23.27;;;;;;;2.90;100.00;100831.00;5117474;28;20194;-39
2021/01/11 01:35:29;;;;;;;39.30;24.07;;;;;;;3.00;100.00;100833.00;5117768;28;20189;-38
2021/01/11 01:38:16;;;;;;;31.40;22.07;;;;;;;2.83;100.00;100835.03;5117411;28;20302;-38
2021/01/11 01:41:03;;;;;;;33.63;21.67;;;;;;;2.94;100.00;100828.59;5117191;28;20346;-37
2021/01/11 01:43:49;;;;;;;37.27;22.23;;;;;;;2.78;100.00;100828.94;5117598;28;20256;-40
2021/01/11 01:46:37;;;;;;;39.67;21.70;;;;;;;2.75;100.00;100828.84;5117693;28;20203;-41
2021/01/11 01:49:24;;;;;;;41.03;22.90;;;;;;;2.99;100.00;100826.19;5117732;28;20494;-40
2021/01/11 01:52:10;;;;;;;40.73;24.23;;;;;;;2.89;100.00;100827.59;5117009;28;20203;-37
2021/01/11 01:54:56;;;;;;;41.67;23.83;;;;;;;3.01;100.00;100820.28;5117000;28;20284;-37
2021/01/11 01:57:43;;;;;;;35.40;23.20;;;;;;;2.76;100.00;100822.91;5117462;28;20345;-36
2021/01/11 02:00:29;;;;;;;40.57;23.27;;;;;;;2.80;100.00;100823.91;5117326;28;20190;-40
2021/01/11 02:03:16;;;;;;;39.73;23.50;;;;;;;2.86;100.00;100816.41;5117226;28;20198;-39
2021/01/11 02:06:02;;;;;;;38.00;25.67;;;;;;;2.69;100.00;100819.28;5117409;28;20494;-40
2021/01/11 02:08:54;;;;;;;41.53;25.30;;;;;;;2.91;100.00;100819.97;5117300;28;20199;-39
2021/01/11 02:11:48;;;;;;;45.20;26.53;;;;;;;2.79;100.00;100822.16;5117308;28;20499;-38
2021/01/11 02:14:47;;;;;;;37.27;26.73;;;;;;;2.69;100.00;100816.75;5117140;28;20227;-36
2021/01/11 02:17:37;;;;;;;41.90;24.67;;;;;;;2.84;100.00;100828.25;5116886;28;20299;-41
2021/01/11 02:21:01;;;;;;;41.23;26.97;;;;;;;3.02;100.00;100822.03;5117215;28;20198;-38
2021/01/11 02:24:22;;;;;;;36.80;26.30;;;;;;;3.04;100.00;100811.84;5116785;28;20190;-40
2021/01/11 02:27:22;;;;;;;42.63;25.87;;;;;;;2.87;100.00;100811.34;5120423;28;20198;-38
2021/01/11 02:30:28;;;;;;;46.40;26.83;;;;;;;2.78;100.00;100820.41;5120776;28;20190;-39
2021/01/11 02:33:17;;;;;;;50.17;27.63;;;;;;;2.83;100.00;100809.50;5120836;28;20281;-39
2021/01/11 02:36:05;;;;;;;42.10;27.77;;;;;;;3.00;100.00;100804.91;5120341;28;20256;-38
2021/01/11 02:38:51;;;;;;;44.77;27.20;;;;;;;2.80;100.00;100814.50;5120929;28;20203;-38
2021/01/11 02:41:37;;;;;;;46.43;28.27;;;;;;;2.65;100.00;100804.69;5120547;28;20338;-36
2021/01/11 02:44:23;;;;;;;44.87;28.03;;;;;;;2.71;100.00;100815.09;5120725;28;20203;-39
2021/01/11 02:47:11;;;;;;;44.80;25.97;;;;;;;2.68;100.00;100807.34;5120875;28;20190;-40
2021/01/11 02:49:59;;;;;;;41.93;25.53;;;;;;;2.66;100.00;100805.56;5120730;28;20195;-40
2021/01/11 02:52:56;;;;;;;44.63;27.17;;;;;;;2.62;100.00;100788.41;5120599;28;20651;-37
2021/01/11 02:55:49;;;;;;;41.73;27.97;;;;;;;2.84;100.00;100795.91;5120305;28;20256;-38
2021/01/11 02:59:02;;;;;;;42.27;25.20;;;;;;;2.73;100.00;100795.59;5120692;28;20316;-39
2021/01/11 03:01:54;;;;;;;41.93;27.23;;;;;;;2.88;100.00;100790.09;5120321;28;20473;-37
2021/01/11 03:04:42;;;;;;;46.53;27.50;;;;;;;2.60;100.00;100795.16;5120148;28;20248;-35
2021/01/11 03:07:28;;;;;;;52.10;29.83;;;;;;;2.78;100.00;100790.63;5120217;28;20194;-39
2021/01/11 03:10:15;;;;;;;51.53;30.77;;;;;;;2.75;100.00;100787.97;5120195;28;20191;-37
2021/01/11 03:13:00;;;;;;;46.60;28.53;;;;;;;2.74;100.00;100799.00;5120113;28;20502;-35
2021/01/11 03:15:46;;;;;;;41.87;26.63;;;;;;;2.75;100.00;100796.50;5120562;28;20199;-33
2021/01/11 03:18:33;;;;;;;55.03;28.33;;;;;;;2.53;100.00;100785.56;5119888;28;20193;-37
2021/01/11 03:21:20;;;;;;;49.10;30.43;;;;;;;2.68;100.00;100786.91;5120178;28;20304;-34
2021/01/11 03:24:07;;;;;;;43.20;26.83;;;;;;;2.57;100.00;100787.41;5119727;28;20597;-36
2021/01/11 03:26:57;;;;;;;49.13;31.70;;;;;;;2.54;100.00;100785.63;5119921;28;20701;-35
2021/01/11 03:29:43;;;;;;;46.87;29.07;;;;;;;2.58;100.00;100784.03;5119770;28;20217;-37
2021/01/11 03:32:30;;;;;;;53.60;31.23;;;;;;;2.60;100.00;100777.28;5119700;28;20522;-35
2021/01/11 03:35:16;;;;;;;56.63;30.50;;;;;;;2.67;100.00;100774.09;5119403;28;20229;-37
2021/01/11 03:38:03;;;;;;;47.13;30.83;;;;;;;2.57;100.00;100767.84;5119338;28;20190;-40
2021/01/11 03:40:49;;;;;;;51.10;30.97;;;;;;;2.49;100.00;100756.50;5119703;28;20283;-36
2021/01/11 03:43:37;;;;;;;58.90;33.43;;;;;;;2.61;100.00;100761.13;5119743;28;20474;-40
2021/01/11 03:46:24;;;;;;;56.83;34.03;;;;;;;2.60;100.00;100747.50;5119386;28;20198;-37
2021/01/11 03:49:10;;;;;;;59.50;33.87;;;;;;;2.28;100.00;100746.47;5119625;28;20202;-38
2021/01/11 03:52:00;;;;;;;57.23;35.77;;;;;;;2.82;100.00;100754.13;5119142;28;20194;-34
2021/01/11 03:54:47;;;;;;;59.37;34.37;;;;;;;2.49;100.00;100741.19;5119308;28;20219;-37
2021/01/11 03:57:35;;;;;;;68.63;35.13;;;;;;;2.20;100.00;100729.22;5597410;22;20232;-30
2021/01/11 04:00:22;;;;;;;66.73;36.13;;;;;;;2.60;100.00;100741.53;5141269;27;20652;-30
2021/01/11 04:03:07;;;;;;;69.10;37.63;;;;;;;2.47;100.00;100742.81;5140599;27;20247;-29
2021/01/11 04:05:55;;;;;;;63.20;36.43;;;;;;;2.22;100.00;100741.16;5140521;27;20259;-30
2021/01/11 04:08:40;;;;;;;71.17;38.93;;;;;;;2.34;100.00;100741.59;5140664;27;20201;-29
2021/01/11 04:11:27;;;;;;;66.93;35.07;;;;;;;2.17;100.00;100742.72;5139785;27;20616;-30
2021/01/11 04:14:12;;;;;;;68.10;38.17;;;;;;;2.36;100.00;100744.19;5140537;27;20222;-30
2021/01/11 04:16:58;;;;;;;64.87;37.27;;;;;;;2.22;100.00;100736.06;5141183;27;20480;-30
2021/01/11 04:19:44;;;;;;;66.20;39.30;;;;;;;2.25;100.00;100736.16;5140769;27;20198;-30
2021/01/11 04:22:31;;;;;;;65.17;37.40;;;;;;;2.47;100.00;100747.06;5140259;27;20263;-29
2021/01/11 04:25:17;;;;;;;65.93;35.70;;;;;;;2.31;100.00;100735.50;5140082;27;20198;-30
2021/01/11 04:28:05;;;;;;;61.67;36.07;;;;;;;2.19;100.00;100743.66;5140694;27;20194;-30
2021/01/11 04:30:51;;;;;;;56.00;34.33;;;;;;;2.25;100.00;100741.28;5140019;27;20243;-30
2021/01/11 04:33:37;;;;;;;59.77;36.07;;;;;;;2.30;100.00;100749.09;5139408;27;20229;-30
2021/01/11 04:36:23;;;;;;;63.33;34.37;;;;;;;2.34;100.00;100761.13;5139462;27;20515;-29
2021/01/11 04:39:09;;;;;;;59.87;35.67;;;;;;;2.35;100.00;100758.63;5139747;27;20348;-30
2021/01/11 04:41:55;;;;;;;61.47;36.57;;;;;;;2.25;100.00;100745.50;5139617;27;20268;-29
2021/01/11 04:44:54;;;;;;;60.87;34.80;;;;;;;2.31;100.00;100751.69;5139560;27;20194;-30
2021/01/11 04:47:55;;;;;;;56.30;33.97;;;;;;;2.24;100.00;100753.97;5142211;27;20275;-32
2021/01/11 04:50:45;;;;;;;61.10;33.90;;;;;;;2.15;100.00;100744.34;5139678;27;20202;-29
2021/01/11 04:53:34;;;;;;;63.50;37.03;;;;;;;2.39;100.00;100742.59;5139329;27;20286;-30
2021/01/11 04:56:20;;;;;;;62.83;37.87;;;;;;;2.05;100.00;100724.44;5138090;27;20343;-30
2021/01/11 04:59:07;;;;;;;63.27;39.47;;;;;;;2.01;100.00;100727.72;5139364;27;20256;-30
2021/01/11 05:01:55;;;;;;;61.17;34.97;;;;;;;2.11;100.00;100737.41;5139662;27;20343;-30
2021/01/11 05:04:41;;;;;;;64.37;36.70;;;;;;;2.39;100.00;100740.06;5138707;27;20193;-30
2021/01/11 05:07:31;;;;;;;66.63;38.07;;;;;;;2.23;100.00;100730.16;5138852;27;20209;-30
2021/01/11 05:10:21;;;;;;;66.77;36.03;;;;;;;2.19;100.00;100736.00;5139070;27;20198;-30
2021/01/11 05:13:09;;;;;;;64.27;38.23;;;;;;;2.24;100.00;100738.66;5141006;27;20197;-30
2021/01/11 05:15:55;;;;;;;65.07;37.03;;;;;;;2.36;100.00;100736.53;5139928;27;20255;-30
2021/01/11 05:18:42;;;;;;;64.63;36.67;;;;;;;2.28;100.00;100743.06;5139446;27;20583;-30
2021/01/11 05:21:41;;;;;;;61.43;37.50;;;;;;;2.26;100.00;100724.28;5138940;28;20335;-30
2021/01/11 05:24:32;;;;;;;63.43;36.73;;;;;;;2.16;100.00;100720.59;5139005;28;20263;-29
2021/01/11 05:27:23;;;;;;;58.83;35.53;;;;;;;2.14;100.00;100726.44;5139385;28;20256;-30
2021/01/11 05:30:15;;;;;;;60.80;35.97;;;;;;;2.07;100.00;100720.25;5139244;28;20301;-30
2021/01/11 05:33:02;;;;;;;58.00;35.47;;;;;;;2.05;100.00;100730.41;5138898;28;20197;-30
2021/01/11 05:36:03;;;;;;;59.10;34.30;;;;;;;2.06;100.00;100732.16;5138837;28;20217;-29
2021/01/11 05:39:08;;;;;;;57.63;34.00;;;;;;;2.13;100.00;100735.78;5139005;28;20197;-30
2021/01/11 05:41:54;;;;;;;54.33;31.43;;;;;;;2.00;100.00;100741.28;5138756;28;20197;-30
2021/01/11 05:44:39;;;;;;;53.40;33.07;;;;;;;1.98;100.00;100742.94;5139083;28;20186;-30
2021/01/11 05:47:25;;;;;;;56.00;34.53;;;;;;;1.81;100.00;100736.38;5138753;28;20262;-29
2021/01/11 05:50:12;;;;;;;54.67;33.00;;;;;;;1.95;100.00;100735.19;5138587;28;20193;-30
2021/01/11 05:53:00;;;;;;;54.20;32.53;;;;;;;1.94;100.00;100733.44;5139049;28;20294;-29
2021/01/11 05:55:46;;;;;;;55.13;33.43;;;;;;;1.92;100.00;100729.97;5139214;28;20628;-30
2021/01/11 05:58:31;;;;;;;54.10;33.53;;;;;;;1.77;100.00;100721.81;5139115;28;20236;-30
2021/01/11 06:01:17;;;;;;;54.40;33.10;;;;;;;1.94;100.00;100724.09;5142198;27;20204;-30
2021/01/11 06:04:03;;;;;;;58.07;34.83;;;;;;;1.89;100.00;100722.22;5144316;27;20197;-30
2021/01/11 06:06:53;;;;;;;54.10;33.70;;;;;;;2.06;100.00;100718.53;5143079;27;20202;-30
2021/01/11 06:09:40;;;;;;;57.37;34.03;;;;;;;1.99;100.00;100724.28;5142771;27;20595;-30
2021/01/11 06:12:26;;;;;;;53.77;33.47;;;;;;;1.99;100.00;100722.59;5142108;27;20294;-30
2021/01/11 06:15:15;;;;;;;65.23;36.30;;;;;;;2.02;100.00;100730.31;5141951;27;20214;-29
2021/01/11 06:18:02;;;;;;;64.50;37.77;;;;;;;1.90;100.00;100727.38;5141463;27;20200;-30
2021/01/11 06:20:49;;;;;;;65.27;38.07;;;;;;;2.02;100.00;100722.66;5142791;27;20201;-30
2021/01/11 06:23:34;;;;;;;65.57;38.23;;;;;;;1.82;100.00;100722.81;5142440;27;20294;-30
2021/01/11 06:26:31;;;;;;;69.87;39.93;;;;;;;2.05;100.00;100724.44;5141907;27;20198;-30
2021/01/11 06:29:31;;;;;;;68.47;42.67;;;;;;;1.73;100.00;100710.63;5142111;27;20607;-30
2021/01/11 06:32:23;;;;;;;76.00;41.87;;;;;;;1.85;100.00;100715.25;5141738;27;20589;-31
2021/01/11 06:35:12;;;;;;;74.23;42.30;;;;;;;1.81;100.00;100716.84;5142505;27;20279;-29
2021/01/11 06:38:10;;;;;;;78.43;44.23;;;;;;;1.93;100.00;100712.16;5142341;27;20201;-29
2021/01/11 06:41:11;;;;;;;75.87;41.50;;;;;;;1.67;100.00;100712.97;5141921;27;20193;-29
2021/01/11 06:44:05;;;;;;;78.13;44.20;;;;;;;1.58;100.00;100713.53;5140313;27;20209;-29
2021/01/11 06:46:52;;;;;;;87.60;46.17;;;;;;;1.57;100.00;100716.91;5139231;27;20197;-29
2021/01/11 06:49:41;;;;;;;82.37;44.67;;;;;;;1.62;100.00;100724.69;5141169;27;20493;-29
2021/01/11 06:52:35;;;;;;;83.40;45.47;;;;;;;1.54;100.00;100708.28;5141969;27;20206;-30
2021/01/11 06:55:21;;;;;;;77.90;43.17;;;;;;;1.61;100.00;100702.53;5141961;27;20371;-30
2021/01/11 06:58:07;;;;;;;75.73;43.27;;;;;;;1.35;100.00;100710.19;5141834;27;20515;-30
2021/01/11 07:01:01;;;;;;;78.03;43.07;;;;;;;1.55;100.00;100704.91;5141587;27;20202;-30
2021/01/11 07:03:48;;;;;;;72.63;40.67;;;;;;;1.71;100.00;100685.09;5141043;27;20201;-30
2021/01/11 07:06:36;;;;;;;59.17;31.63;;;;;;;1.63;100.00;100685.63;5140968;27;20190;-30
2021/01/11 07:09:24;;;;;;;56.00;30.50;;;;;;;1.35;100.00;100682.16;5140664;27;20232;-30
2021/01/11 07:12:19;;;;;;;57.07;33.27;;;;;;;1.49;100.00;100677.53;5133198;27;20602;-30
2021/01/11 07:15:07;;;;;;;52.13;31.70;;;;;;;1.51;100.00;100688.63;5140625;27;20225;-30
2021/01/11 07:17:55;;;;;;;53.70;31.63;;;;;;;1.44;100.00;100694.31;5140289;27;20603;-30
2021/01/11 07:20:42;;;;;;;53.63;31.17;;;;;;;1.56;100.00;100712.63;5139116;27;20422;-30
2021/01/11 07:23:28;;;;;;;52.13;31.47;;;;;;;1.46;100.00;100696.94;5139592;27;20202;-30
2021/01/11 07:26:16;;;;;;;48.37;31.27;;;;;;;1.51;100.00;100693.72;5140089;27;20190;-30
2021/01/11 07:29:05;;;;;;;53.27;31.30;;;;;;;1.49;100.00;100699.59;5139673;27;20235;-30
2021/01/11 07:31:58;;;;;;;50.93;30.97;;;;;;;1.44;100.00;100690.91;5140709;27;20613;-30
2021/01/11 07:34:45;;;;;;;53.03;32.37;;;;;;;1.56;100.00;100688.81;5139873;27;20221;-30
2021/01/11 07:37:31;;;;;;;51.17;30.43;;;;;;;1.62;100.00;100694.97;5139951;27;20316;-30
2021/01/11 07:40:17;;;;;;;51.70;31.57;;;;;;;1.36;100.00;100680.47;5137688;27;20205;-31
2021/01/11 07:43:03;;;;;;;49.60;28.87;;;;;;;1.45;100.00;100677.34;5119195;28;20263;-30
2021/01/11 07:46:07;;;;;;;45.97;26.83;;;;;;;1.71;100.00;100679.97;5119583;27;20210;-32
2021/01/11 07:49:15;;;;;;;51.30;29.93;;;;;;;1.48;100.00;100680.00;5140302;27;20228;-31
2021/01/11 07:52:09;;;;;;;48.87;27.53;;;;;;;1.58;100.00;100675.31;5139295;27;20490;-30
2021/01/11 07:55:02;;;;;;;54.33;30.23;;;;;;;1.49;100.00;100682.63;5139093;27;20765;-31
2021/01/11 07:58:04;;;;;;;50.70;30.67;;;;;;;1.30;100.00;100676.00;5139523;27;20241;-31
2021/01/11 08:01:02;;;;;;;48.97;30.20;;;;;;;1.49;100.00;100672.41;5140057;27;20205;-31
2021/01/11 08:03:54;;;;;;;46.00;27.17;;;;;;;1.40;100.00;100664.44;5140942;27;20308;-30
2021/01/11 08:06:55;;;;;;;53.63;32.67;;;;;;;1.43;100.00;100667.09;5140165;27;20197;-30
2021/01/11 08:09:43;;;;;;;51.23;30.60;;;;;;;1.40;100.00;100661.91;5140881;27;20595;-31
2021/01/11 08:12:30;;;;;;;53.07;29.60;;;;;;;1.32;100.00;100645.50;5140662;27;20335;-30
2021/01/11 08:15:20;;;;;;;46.83;28.00;;;;;;;1.46;100.00;100643.41;5140616;27;20221;-30
2021/01/11 08:18:06;;;;;;;51.93;29.23;;;;;;;1.53;100.00;100642.81;5139331;27;20271;-30
2021/01/11 08:20:52;;;;;;;46.80;29.47;;;;;;;1.55;100.00;100631.84;5139093;27;20197;-30
2021/01/11 08:23:39;;;;;;;52.23;31.90;;;;;;;1.49;100.00;100624.00;5139305;27;20202;-30
2021/01/11 08:26:36;;;;;;;55.13;30.97;;;;;;;1.45;100.00;100623.84;5138992;27;20212;-32
2021/01/11 08:29:29;;;;;;;51.07;32.57;;;;;;;1.44;100.00;100633.16;5138886;27;20205;-31
2021/01/11 08:32:19;;;;;;;56.67;32.73;;;;;;;1.50;100.00;100633.38;5139135;27;20251;-30
2021/01/11 08:35:10;;;;;;;53.20;30.97;;;;;;;1.72;100.00;100622.22;5139409;27;20230;-30
2021/01/11 08:37:59;;;;;;;47.83;28.47;;;;;;;1.81;100.00;100630.13;5139348;27;20286;-30
2021/01/11 08:40:49;;;;;;;46.87;28.40;;;;;;;1.64;100.00;100633.81;5139178;27;20205;-31
2021/01/11 08:43:37;;;;;;;53.67;29.97;;;;;;;1.65;100.00;100608.38;5139581;27;20291;-38
2021/01/11 08:46:42;;;;;;;52.90;30.30;;;;;;;1.65;100.00;100608.38;5138627;27;20595;-31
2021/01/11 08:49:55;;;;;;;49.13;30.03;;;;;;;1.67;100.00;100604.19;5138466;27;20193;-30
2021/01/11 08:52:40;;;;;;;48.33;28.30;;;;;;;1.55;100.00;100601.28;5139319;27;20190;-30
2021/01/11 08:55:27;;;;;;;52.90;30.63;;;;;;;1.82;100.00;100603.81;5138238;27;20225;-30
2021/01/11 08:58:19;;;;;;;47.47;30.60;;;;;;;1.85;100.00;100619.22;5139454;27;20309;-30
2021/01/11 09:01:11;;;;;;;51.83;31.27;;;;;;;1.95;100.00;100620.41;5139831;27;20193;-30
2021/01/11 09:03:58;;;;;;;49.27;32.20;;;;;;;1.87;100.00;100607.38;5138999;27;20202;-30
2021/01/11 09:06:46;;;;;;;47.83;30.70;;;;;;;2.00;100.00;100621.38;5139728;27;20258;-30
2021/01/11 09:09:36;;;;;;;55.57;32.20;;;;;;;1.98;100.00;100628.16;5139918;27;20197;-30
2021/01/11 09:12:30;;;;;;;48.03;29.33;;;;;;;1.97;100.00;100623.88;5140039;27;20201;-30
2021/01/11 09:15:24;;;;;;;46.10;29.93;;;;;;;2.02;100.00;100622.31;5139438;27;20318;-31
2021/01/11 09:18:16;;;;;;;51.03;31.07;;;;;;;1.92;100.00;100622.84;5118738;28;20584;-32
2021/01/11 09:21:03;;;;;;;53.83;30.20;;;;;;;2.13;100.00;100627.75;5118206;28;20183;-31
2021/01/11 09:23:50;;;;;;;47.77;29.60;;;;;;;2.19;100.00;100615.19;5118616;28;20198;-30
2021/01/11 09:26:38;;;;;;;43.63;28.13;;;;;;;2.08;100.00;100618.28;5118383;28;20499;-30
2021/01/11 09:29:25;;;;;;;47.23;30.30;;;;;;;2.19;100.00;100618.63;5118960;28;20198;-30
2021/01/11 09:32:10;;;;;;;44.60;28.80;;;;;;;2.20;100.00;100624.59;5118654;28;20202;-30
2021/01/11 09:35:01;;;;;;;40.73;26.13;;;;;;;2.19;100.00;100623.72;5120685;28;20221;-30
2021/01/11 09:37:48;;;;;;;40.67;25.53;;;;;;;2.16;100.00;100625.31;5122780;28;20650;-30
2021/01/11 09:40:35;;;;;;;43.93;28.40;;;;;;;2.21;100.00;100627.16;5122967;28;20340;-30
2021/01/11 09:43:23;;;;;;;43.03;26.83;;;;;;;2.31;100.00;100603.66;5123659;28;20213;-30
2021/01/11 09:46:11;;;;;;;42.57;27.10;;;;;;;2.46;100.00;100604.94;5122677;28;20295;-30
2021/01/11 09:48:57;;;;;;;42.47;25.27;;;;;;;2.40;100.00;100615.81;5123607;28;20596;-30
2021/01/11 09:51:44;;;;;;;36.70;24.93;;;;;;;2.69;100.00;100606.47;5124178;28;20197;-30
2021/01/11 09:54:31;;;;;;;38.60;24.70;;;;;;;2.41;100.00;100608.19;5123478;28;20625;-30
2021/01/11 09:57:17;;;;;;;37.47;24.10;;;;;;;2.68;100.00;100603.03;5123145;28;20199;-30
2021/01/11 10:00:08;;;;;;;38.60;24.37;;;;;;;2.54;100.00;100611.13;5123665;28;20190;-30
2021/01/11 10:02:54;;;;;;;40.60;25.23;;;;;;;2.69;100.00;100616.66;5123758;28;20199;-30
2021/01/11 10:05:44;;;;;;;37.67;24.37;;;;;;;2.35;100.00;100618.25;5122633;28;20199;-30
2021/01/11 10:08:34;;;;;;;39.03;24.83;;;;;;;2.66;100.00;100612.34;5122781;28;20248;-30
2021/01/11 10:11:26;;;;;;;36.10;24.80;;;;;;;2.68;100.00;100614.94;5123235;27;20487;-31
2021/01/11 10:14:22;;;;;;;38.77;23.23;;;;;;;2.55;100.00;100612.88;5142428;27;20195;-32
2021/01/11 10:17:10;;;;;;;35.83;22.97;;;;;;;2.61;100.00;100607.91;5142688;27;20205;-31
2021/01/11 10:19:57;;;;;;;29.57;21.77;;;;;;;2.46;100.00;100608.34;5143085;27;20198;-31
2021/01/11 10:22:51;;;;;;;35.00;21.53;;;;;;;2.69;100.00;100611.56;5143331;27;20210;-30
2021/01/11 10:25:38;;;;;;;33.53;23.33;;;;;;;2.81;100.00;100598.25;5142436;27;20193;-30
2021/01/11 10:28:24;;;;;;;34.07;21.70;;;;;;;2.57;100.00;100591.66;5141893;27;20202;-30
2021/01/11 10:31:12;;;;;;;32.40;22.07;;;;;;;2.82;100.00;100595.75;5142766;27;20197;-30
2021/01/11 10:33:58;;;;;;;31.73;21.50;;;;;;;2.96;100.00;100601.25;5142963;27;20261;-30
2021/01/11 10:36:46;;;;;;;34.27;25.43;;;;;;;2.50;100.00;100599.09;5142832;27;20197;-31
2021/01/11 10:39:35;;;;;;;36.60;22.97;;;;;;;2.63;100.00;100590.94;5141703;27;20197;-30
2021/01/11 10:42:26;;;;;;;33.73;21.53;;;;;;;2.68;100.00;100600.47;5142388;27;20199;-30
2021/01/11 10:45:12;;;;;;;33.13;23.23;;;;;;;2.49;100.00;100587.16;5142383;27;20194;-31
2021/01/11 10:47:58;;;;;;;32.63;20.57;;;;;;;2.49;100.00;100571.81;5141395;27;20201;-30
2021/01/11 10:50:44;;;;;;;34.03;21.40;;;;;;;2.74;100.00;100569.16;5141537;27;20198;-30
2021/01/11 10:53:33;;;;;;;32.50;22.30;;;;;;;2.71;100.00;100554.59;5142441;27;20202;-30
2021/01/11 10:56:22;;;;;;;35.30;23.80;;;;;;;2.71;100.00;100564.81;5141872;27;20306;-31
2021/01/11 10:59:08;;;;;;;37.30;21.67;;;;;;;2.87;100.00;100558.44;5141698;27;20253;-31
2021/01/11 11:01:54;;;;;;;36.10;23.33;;;;;;;2.75;100.00;100556.44;5142046;27;20201;-30
2021/01/11 11:04:41;;;;;;;33.60;22.23;;;;;;;2.79;100.00;100552.28;5140933;27;20472;-30
2021/01/11 11:07:33;;;;;;;32.20;21.40;;;;;;;2.75;100.00;100547.91;5141756;27;20291;-30
2021/01/11 11:10:22;;;;;;;29.83;20.13;;;;;;;2.65;100.00;100535.69;5141496;27;20191;-30
2021/01/11 11:13:10;;;;;;;28.00;18.53;;;;;;;2.46;100.00;100531.75;5141091;27;20205;-30
2021/01/11 11:15:57;;;;;;;32.47;18.70;;;;;;;2.81;100.00;100524.19;5140137;27;20374;-30
2021/01/11 11:18:43;;;;;;;31.40;20.00;;;;;;;2.67;100.00;100522.13;5140866;27;20201;-31
2021/01/11 11:21:35;;;;;;;38.13;21.70;;;;;;;2.82;100.00;100513.16;5141031;27;20283;-30
2021/01/11 11:24:43;;;;;;;35.37;21.60;;;;;;;2.54;100.00;100503.91;5140614;27;20270;-31
2021/01/11 11:27:29;;;;;;;35.13;21.10;;;;;;;2.66;100.00;100501.66;5141846;27;20244;-30
2021/01/11 11:30:16;;;;;;;30.83;19.63;;;;;;;2.69;100.00;100509.41;5141271;27;20194;-31
2021/01/11 11:33:03;;;;;;;27.37;18.67;;;;;;;2.40;100.00;100498.41;5141047;27;20198;-30
2021/01/11 11:35:51;;;;;;;31.27;20.57;;;;;;;2.56;100.00;100505.69;5142053;27;20209;-31
2021/01/11 11:38:37;;;;;;;28.50;18.73;;;;;;;2.61;100.00;100500.66;5142705;27;20338;-30
2021/01/11 11:41:23;;;;;;;27.40;18.17;;;;;;;2.56;100.00;100490.34;5143499;27;20218;-31
2021/01/11 11:44:09;;;;;;;29.37;18.23;;;;;;;2.69;100.00;100483.88;5142178;27;20406;-31
2021/01/11 11:46:57;;;;;;;31.90;18.57;;;;;;;2.54;100.00;100478.38;5140350;27;20189;-31
2021/01/11 11:49:45;;;;;;;29.37;18.50;;;;;;;2.63;100.00;100468.38;5141876;27;20343;-30
2021/01/11 11:52:31;;;;;;;30.10;18.20;;;;;;;2.49;100.00;100459.50;5141060;27;20347;-30
2021/01/11 11:55:19;;;;;;;26.77;19.47;;;;;;;2.53;100.00;100457.09;5140929;27;20756;-31
2021/01/11 11:58:06;;;;;;;29.60;18.23;;;;;;;2.59;100.00;100452.16;5141920;27;20279;-30
2021/01/11 12:00:52;;;;;;;26.97;17.83;;;;;;;2.48;100.00;100453.53;5142538;27;20282;-30
2021/01/11 12:03:38;;;;;;;27.10;17.33;;;;;;;2.44;100.00;100444.06;5141677;27;20197;-30
2021/01/11 12:06:26;;;;;;;22.90;16.10;;;;;;;2.57;100.00;100440.16;5140918;27;20197;-30
2021/01/11 12:09:18;;;;;;;24.73;15.83;;;;;;;2.40;100.00;100420.13;5140576;27;20463;-30
2021/01/11 12:12:05;;;;;;;24.10;15.70;;;;;;;2.45;100.00;100414.28;5140698;27;20201;-30
2021/01/11 12:14:50;;;;;;;25.17;18.37;;;;;;;2.48;100.00;100417.78;5140427;27;20218;-30
2021/01/11 12:17:41;;;;;;;25.47;17.37;;;;;;;2.43;100.00;100404.03;5140773;27;20201;-30
2021/01/11 12:20:26;;;;;;;24.53;15.83;;;;;;;2.53;100.00;100410.25;5141151;27;20510;-30
2021/01/11 12:23:16;;;;;;;24.37;15.13;;;;;;;2.59;100.00;100405.31;5140718;27;20496;-30
2021/01/11 12:26:02;;;;;;;26.13;16.90;;;;;;;2.62;100.00;100402.81;5140118;27;20641;-31
2021/01/11 12:28:47;;;;;;;24.83;16.47;;;;;;;2.53;100.00;100395.81;5140388;27;20273;-30
2021/01/11 12:31:37;;;;;;;23.57;16.40;;;;;;;2.48;100.00;100392.28;5139672;27;20620;-30
2021/01/11 12:34:24;;;;;;;23.10;15.97;;;;;;;2.61;100.00;100389.19;5139964;27;20197;-30
2021/01/11 12:37:13;;;;;;;23.83;15.87;;;;;;;2.67;100.00;100391.91;5139505;27;20202;-30
2021/01/11 12:40:00;;;;;;;22.40;15.57;;;;;;;2.81;100.00;100387.13;5139742;27;20310;-31
2021/01/11 12:42:47;;;;;;;24.97;16.00;;;;;;;2.60;100.00;100371.31;5139526;27;20204;-30
2021/01/11 12:45:33;;;;;;;22.77;15.67;;;;;;;2.97;100.00;100376.47;5138903;27;20340;-30
2021/01/11 12:48:21;;;;;;;21.47;16.23;;;;;;;2.81;100.00;100355.63;5139209;27;20591;-30